sensor_id;sensor_type;location;lat;lon;timestamp;P1;durP1;ratioP1;P2;durP2;ratioP2
33930;SDS011;20215;53.130;6.408;2022-10-16T00:00:41;1.63;;;0.65;;
33930;SDS011;20215;53.130;6.408;2022-10-16T00:03:07;0.98;;;0.50;;
33930;SDS011;20215;53.130;6.408;2022-10-16T00:05:37;2.10;;;0.70;;
33930;SDS011;20215;53.130;6.408;2022-10-16T00:08:06;1.63;;;0.70;;
33930;SDS011;20215;53.130;6.408;2022-10-16T00:10:32;1.50;;;0.63;;
33930;SDS011;20215;53.130;6.408;2022-10-16T00:12:58;1.52;;;0.75;;
33930;SDS011;20215;53.130;6.408;2022-10-16T00:15:23;2.88;;;0.73;;
33930;SDS011;20215;53.130;6.408;2022-10-16T00:17:49;1.58;;;0.70;;
33930;SDS011;20215;53.130;6.408;2022-10-16T00:20:15;1.25;;;0.65;;
33930;SDS011;20215;53.130;6.408;2022-10-16T00:22:40;1.05;;;0.40;;
33930;SDS011;20215;53.130;6.408;2022-10-16T00:25:06;2.83;;;0.63;;
33930;SDS011;20215;53.130;6.408;2022-10-16T00:27:32;2.55;;;0.73;;
33930;SDS011;20215;53.130;6.408;2022-10-16T00:29:58;0.85;;;0.60;;
33930;SDS011;20215;53.130;6.408;2022-10-16T00:32:24;0.65;;;0.60;;
33930;SDS011;20215;53.130;6.408;2022-10-16T00:34:50;0.85;;;0.55;;
33930;SDS011;20215;53.130;6.408;2022-10-16T00:37:15;1.27;;;0.40;;
33930;SDS011;20215;53.130;6.408;2022-10-16T00:39:41;1.38;;;0.60;;
33930;SDS011;20215;53.130;6.408;2022-10-16T00:42:06;1.65;;;0.47;;
33930;SDS011;20215;53.130;6.408;2022-10-16T00:45:07;3.38;;;0.60;;
33930;SDS011;20215;53.130;6.408;2022-10-16T00:49:53;3.30;;;1.17;;
33930;SDS011;20215;53.130;6.408;2022-10-16T00:52:24;1.13;;;0.70;;
33930;SDS011;20215;53.130;6.408;2022-10-16T00:54:49;2.00;;;0.52;;
33930;SDS011;20215;53.130;6.408;2022-10-16T00:57:17;1.33;;;0.80;;
33930;SDS011;20215;53.130;6.408;2022-10-16T00:59:43;1.75;;;1.13;;
33930;SDS011;20215;53.130;6.408;2022-10-16T01:02:14;0.95;;;0.65;;
33930;SDS011;20215;53.130;6.408;2022-10-16T01:04:45;2.25;;;0.73;;
33930;SDS011;20215;53.130;6.408;2022-10-16T01:12:39;1.08;;;0.70;;
33930;SDS011;20215;53.130;6.408;2022-10-16T01:15:47;0.93;;;0.47;;
33930;SDS011;20215;53.130;6.408;2022-10-16T01:21:12;2.55;;;0.47;;
33930;SDS011;20215;53.130;6.408;2022-10-16T01:29:09;1.33;;;0.55;;
33930;SDS011;20215;53.130;6.408;2022-10-16T01:31:38;0.77;;;0.70;;
33930;SDS011;20215;53.130;6.408;2022-10-16T01:34:06;1.70;;;0.55;;
33930;SDS011;20215;53.130;6.408;2022-10-16T01:36:40;0.88;;;0.50;;
33930;SDS011;20215;53.130;6.408;2022-10-16T01:39:15;0.75;;;0.50;;
33930;SDS011;20215;53.130;6.408;2022-10-16T01:41:47;0.60;;;0.50;;
33930;SDS011;20215;53.130;6.408;2022-10-16T01:44:18;1.63;;;0.45;;
33930;SDS011;20215;53.130;6.408;2022-10-16T01:46:47;1.35;;;0.57;;
33930;SDS011;20215;53.130;6.408;2022-10-16T01:49:16;1.33;;;0.90;;
33930;SDS011;20215;53.130;6.408;2022-10-16T01:51:44;3.90;;;0.80;;
33930;SDS011;20215;53.130;6.408;2022-10-16T01:54:12;0.90;;;0.50;;
33930;SDS011;20215;53.130;6.408;2022-10-16T01:56:41;2.20;;;0.40;;
33930;SDS011;20215;53.130;6.408;2022-10-16T01:59:14;0.90;;;0.52;;
33930;SDS011;20215;53.130;6.408;2022-10-16T02:01:45;1.00;;;0.47;;
33930;SDS011;20215;53.130;6.408;2022-10-16T02:04:17;0.73;;;0.50;;
33930;SDS011;20215;53.130;6.408;2022-10-16T02:06:48;1.48;;;0.47;;
33930;SDS011;20215;53.130;6.408;2022-10-16T02:09:14;2.10;;;0.43;;
33930;SDS011;20215;53.130;6.408;2022-10-16T02:11:41;0.68;;;0.52;;
33930;SDS011;20215;53.130;6.408;2022-10-16T02:14:08;0.82;;;0.43;;
33930;SDS011;20215;53.130;6.408;2022-10-16T02:16:34;0.98;;;0.52;;
33930;SDS011;20215;53.130;6.408;2022-10-16T02:19:02;1.05;;;0.50;;
33930;SDS011;20215;53.130;6.408;2022-10-16T02:21:30;1.02;;;0.60;;
33930;SDS011;20215;53.130;6.408;2022-10-16T02:24:02;0.43;;;0.40;;
33930;SDS011;20215;53.130;6.408;2022-10-16T02:26:41;2.35;;;0.40;;
33930;SDS011;20215;53.130;6.408;2022-10-16T02:29:15;1.20;;;0.57;;
33930;SDS011;20215;53.130;6.408;2022-10-16T02:31:45;1.77;;;0.50;;
33930;SDS011;20215;53.130;6.408;2022-10-16T02:34:14;1.65;;;0.50;;
33930;SDS011;20215;53.130;6.408;2022-10-16T02:36:41;1.48;;;0.50;;
33930;SDS011;20215;53.130;6.408;2022-10-16T02:39:09;4.47;;;1.08;;
33930;SDS011;20215;53.130;6.408;2022-10-16T02:41:35;1.20;;;0.50;;
33930;SDS011;20215;53.130;6.408;2022-10-16T02:44:01;1.45;;;0.70;;
33930;SDS011;20215;53.130;6.408;2022-10-16T02:46:27;1.10;;;0.80;;
33930;SDS011;20215;53.130;6.408;2022-10-16T02:48:52;3.72;;;0.88;;
33930;SDS011;20215;53.130;6.408;2022-10-16T02:51:18;2.47;;;0.40;;
33930;SDS011;20215;53.130;6.408;2022-10-16T02:53:43;1.52;;;0.30;;
33930;SDS011;20215;53.130;6.408;2022-10-16T02:56:09;1.38;;;0.70;;
33930;SDS011;20215;53.130;6.408;2022-10-16T02:58:35;1.40;;;0.57;;
33930;SDS011;20215;53.130;6.408;2022-10-16T03:01:00;1.15;;;0.40;;
33930;SDS011;20215;53.130;6.408;2022-10-16T03:03:26;1.75;;;0.40;;
33930;SDS011;20215;53.130;6.408;2022-10-16T03:05:52;3.45;;;0.50;;
33930;SDS011;20215;53.130;6.408;2022-10-16T03:08:17;3.35;;;0.50;;
33930;SDS011;20215;53.130;6.408;2022-10-16T03:10:48;3.30;;;0.50;;
33930;SDS011;20215;53.130;6.408;2022-10-16T03:13:14;0.50;;;0.47;;
33930;SDS011;20215;53.130;6.408;2022-10-16T03:15:39;0.82;;;0.63;;
33930;SDS011;20215;53.130;6.408;2022-10-16T03:18:05;1.15;;;0.45;;
33930;SDS011;20215;53.130;6.408;2022-10-16T03:20:30;0.40;;;0.40;;
33930;SDS011;20215;53.130;6.408;2022-10-16T03:22:56;1.70;;;0.60;;
33930;SDS011;20215;53.130;6.408;2022-10-16T03:25:22;0.73;;;0.50;;
33930;SDS011;20215;53.130;6.408;2022-10-16T03:27:47;3.55;;;0.80;;
33930;SDS011;20215;53.130;6.408;2022-10-16T03:30:13;0.73;;;0.50;;
33930;SDS011;20215;53.130;6.408;2022-10-16T03:32:39;0.63;;;0.40;;
33930;SDS011;20215;53.130;6.408;2022-10-16T03:35:04;0.93;;;0.50;;
33930;SDS011;20215;53.130;6.408;2022-10-16T03:37:30;1.55;;;0.40;;
33930;SDS011;20215;53.130;6.408;2022-10-16T03:39:56;0.65;;;0.30;;
33930;SDS011;20215;53.130;6.408;2022-10-16T03:42:21;0.95;;;0.40;;
33930;SDS011;20215;53.130;6.408;2022-10-16T03:44:47;0.40;;;0.40;;
33930;SDS011;20215;53.130;6.408;2022-10-16T03:47:12;1.05;;;0.60;;
33930;SDS011;20215;53.130;6.408;2022-10-16T03:49:38;0.75;;;0.40;;
33930;SDS011;20215;53.130;6.408;2022-10-16T03:52:04;0.68;;;0.40;;
33930;SDS011;20215;53.130;6.408;2022-10-16T03:54:29;2.38;;;0.40;;
33930;SDS011;20215;53.130;6.408;2022-10-16T03:56:56;1.95;;;0.50;;
33930;SDS011;20215;53.130;6.408;2022-10-16T03:59:22;1.88;;;0.60;;
33930;SDS011;20215;53.130;6.408;2022-10-16T04:01:47;0.80;;;0.60;;
33930;SDS011;20215;53.130;6.408;2022-10-16T04:04:13;0.88;;;0.50;;
33930;SDS011;20215;53.130;6.408;2022-10-16T04:06:38;1.08;;;0.40;;
33930;SDS011;20215;53.130;6.408;2022-10-16T04:09:04;1.42;;;0.75;;
33930;SDS011;20215;53.130;6.408;2022-10-16T04:11:30;0.73;;;0.50;;
33930;SDS011;20215;53.130;6.408;2022-10-16T04:13:55;1.02;;;0.50;;
33930;SDS011;20215;53.130;6.408;2022-10-16T04:16:21;0.68;;;0.32;;
33930;SDS011;20215;53.130;6.408;2022-10-16T04:18:46;0.60;;;0.40;;
33930;SDS011;20215;53.130;6.408;2022-10-16T04:21:12;1.63;;;0.50;;
33930;SDS011;20215;53.130;6.408;2022-10-16T04:23:37;1.60;;;0.40;;
33930;SDS011;20215;53.130;6.408;2022-10-16T04:26:03;1.05;;;0.60;;
33930;SDS011;20215;53.130;6.408;2022-10-16T04:28:29;4.43;;;0.75;;
33930;SDS011;20215;53.130;6.408;2022-10-16T04:30:54;1.40;;;0.65;;
33930;SDS011;20215;53.130;6.408;2022-10-16T04:33:20;0.47;;;0.47;;
33930;SDS011;20215;53.130;6.408;2022-10-16T04:35:46;0.95;;;0.40;;
33930;SDS011;20215;53.130;6.408;2022-10-16T04:38:12;1.00;;;0.63;;
33930;SDS011;20215;53.130;6.408;2022-10-16T04:40:37;1.45;;;0.40;;
33930;SDS011;20215;53.130;6.408;2022-10-16T04:43:03;1.20;;;0.50;;
33930;SDS011;20215;53.130;6.408;2022-10-16T04:45:30;1.35;;;0.80;;
33930;SDS011;20215;53.130;6.408;2022-10-16T04:47:57;0.32;;;0.32;;
33930;SDS011;20215;53.130;6.408;2022-10-16T04:50:23;1.05;;;0.40;;
33930;SDS011;20215;53.130;6.408;2022-10-16T04:52:48;0.73;;;0.40;;
33930;SDS011;20215;53.130;6.408;2022-10-16T04:55:14;0.70;;;0.60;;
33930;SDS011;20215;53.130;6.408;2022-10-16T04:57:40;0.47;;;0.30;;
33930;SDS011;20215;53.130;6.408;2022-10-16T05:00:06;0.95;;;0.45;;
33930;SDS011;20215;53.130;6.408;2022-10-16T05:02:33;1.30;;;0.75;;
33930;SDS011;20215;53.130;6.408;2022-10-16T05:04:58;1.60;;;0.43;;
33930;SDS011;20215;53.130;6.408;2022-10-16T05:07:24;1.45;;;0.68;;
33930;SDS011;20215;53.130;6.408;2022-10-16T05:09:50;1.02;;;0.40;;
33930;SDS011;20215;53.130;6.408;2022-10-16T05:12:15;0.85;;;0.60;;
33930;SDS011;20215;53.130;6.408;2022-10-16T05:14:41;1.00;;;0.50;;
33930;SDS011;20215;53.130;6.408;2022-10-16T05:17:07;0.73;;;0.40;;
33930;SDS011;20215;53.130;6.408;2022-10-16T05:19:32;0.85;;;0.57;;
33930;SDS011;20215;53.130;6.408;2022-10-16T05:21:58;0.77;;;0.60;;
33930;SDS011;20215;53.130;6.408;2022-10-16T05:24:24;0.77;;;0.77;;
33930;SDS011;20215;53.130;6.408;2022-10-16T05:26:49;1.90;;;0.50;;
33930;SDS011;20215;53.130;6.408;2022-10-16T05:29:16;0.63;;;0.50;;
33930;SDS011;20215;53.130;6.408;2022-10-16T05:31:41;0.40;;;0.40;;
33930;SDS011;20215;53.130;6.408;2022-10-16T05:34:09;3.22;;;0.73;;
33930;SDS011;20215;53.130;6.408;2022-10-16T05:36:34;1.02;;;0.50;;
33930;SDS011;20215;53.130;6.408;2022-10-16T05:39:00;0.57;;;0.47;;
33930;SDS011;20215;53.130;6.408;2022-10-16T05:41:25;2.08;;;0.70;;
33930;SDS011;20215;53.130;6.408;2022-10-16T05:43:51;2.10;;;0.65;;
33930;SDS011;20215;53.130;6.408;2022-10-16T05:46:17;0.55;;;0.50;;
33930;SDS011;20215;53.130;6.408;2022-10-16T05:48:43;0.90;;;0.68;;
33930;SDS011;20215;53.130;6.408;2022-10-16T05:51:10;1.15;;;0.80;;
33930;SDS011;20215;53.130;6.408;2022-10-16T05:53:37;2.17;;;0.50;;
33930;SDS011;20215;53.130;6.408;2022-10-16T05:56:04;0.70;;;0.70;;
33930;SDS011;20215;53.130;6.408;2022-10-16T05:58:31;1.05;;;0.60;;
33930;SDS011;20215;53.130;6.408;2022-10-16T06:01:01;0.95;;;0.50;;
33930;SDS011;20215;53.130;6.408;2022-10-16T06:03:29;0.63;;;0.60;;
33930;SDS011;20215;53.130;6.408;2022-10-16T06:09:17;1.05;;;0.40;;
33930;SDS011;20215;53.130;6.408;2022-10-16T06:11:42;0.70;;;0.70;;
33930;SDS011;20215;53.130;6.408;2022-10-16T06:14:08;1.98;;;0.55;;
33930;SDS011;20215;53.130;6.408;2022-10-16T06:16:34;0.57;;;0.50;;
33930;SDS011;20215;53.130;6.408;2022-10-16T06:19:01;0.75;;;0.63;;
33930;SDS011;20215;53.130;6.408;2022-10-16T06:21:29;1.13;;;0.80;;
33930;SDS011;20215;53.130;6.408;2022-10-16T06:23:56;0.65;;;0.45;;
33930;SDS011;20215;53.130;6.408;2022-10-16T06:26:24;0.73;;;0.73;;
33930;SDS011;20215;53.130;6.408;2022-10-16T06:28:50;0.68;;;0.50;;
33930;SDS011;20215;53.130;6.408;2022-10-16T06:31:16;0.80;;;0.73;;
33930;SDS011;20215;53.130;6.408;2022-10-16T06:33:43;0.77;;;0.65;;
33930;SDS011;20215;53.130;6.408;2022-10-16T06:36:13;0.90;;;0.50;;
33930;SDS011;20215;53.130;6.408;2022-10-16T06:38:40;0.52;;;0.50;;
33930;SDS011;20215;53.130;6.408;2022-10-16T06:41:06;1.20;;;0.50;;
33930;SDS011;20215;53.130;6.408;2022-10-16T06:43:34;0.47;;;0.47;;
33930;SDS011;20215;53.130;6.408;2022-10-16T06:46:03;0.60;;;0.38;;
33930;SDS011;20215;53.130;6.408;2022-10-16T06:48:30;1.65;;;0.60;;
33930;SDS011;20215;53.130;6.408;2022-10-16T06:53:35;1.27;;;0.50;;
33930;SDS011;20215;53.130;6.408;2022-10-16T06:56:10;1.63;;;0.75;;
33930;SDS011;20215;53.130;6.408;2022-10-16T06:58:37;2.45;;;1.10;;
33930;SDS011;20215;53.130;6.408;2022-10-16T07:01:03;2.05;;;0.70;;
33930;SDS011;20215;53.130;6.408;2022-10-16T07:03:30;2.45;;;0.60;;
33930;SDS011;20215;53.130;6.408;2022-10-16T07:05:56;1.15;;;0.70;;
33930;SDS011;20215;53.130;6.408;2022-10-16T07:08:22;2.58;;;0.60;;
33930;SDS011;20215;53.130;6.408;2022-10-16T07:10:48;0.85;;;0.55;;
33930;SDS011;20215;53.130;6.408;2022-10-16T07:13:13;0.70;;;0.40;;
33930;SDS011;20215;53.130;6.408;2022-10-16T07:15:39;2.63;;;1.02;;
33930;SDS011;20215;53.130;6.408;2022-10-16T07:18:06;2.38;;;0.82;;
33930;SDS011;20215;53.130;6.408;2022-10-16T07:20:32;1.67;;;0.60;;
33930;SDS011;20215;53.130;6.408;2022-10-16T07:22:58;0.70;;;0.45;;
33930;SDS011;20215;53.130;6.408;2022-10-16T07:25:23;1.60;;;0.90;;
33930;SDS011;20215;53.130;6.408;2022-10-16T07:27:49;2.92;;;0.80;;
33930;SDS011;20215;53.130;6.408;2022-10-16T07:30:15;0.85;;;0.57;;
33930;SDS011;20215;53.130;6.408;2022-10-16T07:32:41;0.68;;;0.50;;
33930;SDS011;20215;53.130;6.408;2022-10-16T07:35:06;1.45;;;0.90;;
33930;SDS011;20215;53.130;6.408;2022-10-16T07:37:32;5.28;;;1.00;;
33930;SDS011;20215;53.130;6.408;2022-10-16T07:39:58;0.88;;;0.60;;
33930;SDS011;20215;53.130;6.408;2022-10-16T07:42:23;2.03;;;1.05;;
33930;SDS011;20215;53.130;6.408;2022-10-16T07:44:49;2.25;;;0.40;;
33930;SDS011;20215;53.130;6.408;2022-10-16T07:47:15;1.27;;;0.77;;
33930;SDS011;20215;53.130;6.408;2022-10-16T07:49:40;0.65;;;0.47;;
33930;SDS011;20215;53.130;6.408;2022-10-16T07:52:06;1.73;;;0.55;;
33930;SDS011;20215;53.130;6.408;2022-10-16T07:54:32;3.20;;;0.95;;
33930;SDS011;20215;53.130;6.408;2022-10-16T07:56:58;3.67;;;0.70;;
33930;SDS011;20215;53.130;6.408;2022-10-16T07:59:23;0.52;;;0.52;;
33930;SDS011;20215;53.130;6.408;2022-10-16T08:01:49;1.15;;;0.90;;
33930;SDS011;20215;53.130;6.408;2022-10-16T08:04:15;1.00;;;0.45;;
33930;SDS011;20215;53.130;6.408;2022-10-16T08:06:41;2.25;;;0.73;;
33930;SDS011;20215;53.130;6.408;2022-10-16T08:09:07;1.17;;;0.70;;
33930;SDS011;20215;53.130;6.408;2022-10-16T08:11:33;0.70;;;0.70;;
33930;SDS011;20215;53.130;6.408;2022-10-16T08:13:59;2.05;;;0.80;;
33930;SDS011;20215;53.130;6.408;2022-10-16T08:16:25;0.93;;;0.52;;
33930;SDS011;20215;53.130;6.408;2022-10-16T08:18:53;1.10;;;0.85;;
33930;SDS011;20215;53.130;6.408;2022-10-16T08:21:20;0.95;;;0.50;;
33930;SDS011;20215;53.130;6.408;2022-10-16T08:23:48;1.75;;;0.73;;
33930;SDS011;20215;53.130;6.408;2022-10-16T08:26:14;1.27;;;0.65;;
33930;SDS011;20215;53.130;6.408;2022-10-16T08:28:40;0.68;;;0.50;;
33930;SDS011;20215;53.130;6.408;2022-10-16T08:31:07;1.88;;;0.60;;
33930;SDS011;20215;53.130;6.408;2022-10-16T08:33:38;1.00;;;0.52;;
33930;SDS011;20215;53.130;6.408;2022-10-16T08:36:05;0.70;;;0.57;;
33930;SDS011;20215;53.130;6.408;2022-10-16T08:38:31;1.35;;;0.50;;
33930;SDS011;20215;53.130;6.408;2022-10-16T08:41:02;0.93;;;0.55;;
33930;SDS011;20215;53.130;6.408;2022-10-16T08:49:15;1.00;;;0.40;;
33930;SDS011;20215;53.130;6.408;2022-10-16T08:51:41;1.23;;;0.73;;
33930;SDS011;20215;53.130;6.408;2022-10-16T08:54:15;2.08;;;0.50;;
33930;SDS011;20215;53.130;6.408;2022-10-16T08:56:53;1.00;;;0.50;;
33930;SDS011;20215;53.130;6.408;2022-10-16T08:59:20;1.75;;;0.93;;
33930;SDS011;20215;53.130;6.408;2022-10-16T09:01:46;0.63;;;0.40;;
33930;SDS011;20215;53.130;6.408;2022-10-16T09:07:25;1.33;;;0.70;;
33930;SDS011;20215;53.130;6.408;2022-10-16T09:15:24;0.93;;;0.50;;
33930;SDS011;20215;53.130;6.408;2022-10-16T09:18:11;3.05;;;0.60;;
33930;SDS011;20215;53.130;6.408;2022-10-16T09:20:53;2.25;;;0.50;;
33930;SDS011;20215;53.130;6.408;2022-10-16T09:23:27;1.05;;;0.73;;
33930;SDS011;20215;53.130;6.408;2022-10-16T09:25:57;2.13;;;0.82;;
33930;SDS011;20215;53.130;6.408;2022-10-16T09:28:24;0.60;;;0.45;;
33930;SDS011;20215;53.130;6.408;2022-10-16T09:30:50;1.20;;;0.50;;
33930;SDS011;20215;53.130;6.408;2022-10-16T09:33:17;0.85;;;0.47;;
33930;SDS011;20215;53.130;6.408;2022-10-16T09:35:51;1.27;;;0.40;;
33930;SDS011;20215;53.130;6.408;2022-10-16T09:38:32;1.67;;;0.30;;
33930;SDS011;20215;53.130;6.408;2022-10-16T09:44:04;1.00;;;0.55;;
33930;SDS011;20215;53.130;6.408;2022-10-16T09:46:38;1.75;;;0.40;;
33930;SDS011;20215;53.130;6.408;2022-10-16T09:49:16;1.70;;;0.50;;
33930;SDS011;20215;53.130;6.408;2022-10-16T09:51:48;2.13;;;0.60;;
33930;SDS011;20215;53.130;6.408;2022-10-16T09:54:19;2.78;;;0.82;;
33930;SDS011;20215;53.130;6.408;2022-10-16T09:56:45;0.95;;;0.32;;
33930;SDS011;20215;53.130;6.408;2022-10-16T09:59:20;1.70;;;0.90;;
33930;SDS011;20215;53.130;6.408;2022-10-16T10:01:49;1.67;;;0.70;;
33930;SDS011;20215;53.130;6.408;2022-10-16T10:04:17;2.10;;;0.63;;
33930;SDS011;20215;53.130;6.408;2022-10-16T10:06:54;2.25;;;0.47;;
33930;SDS011;20215;53.130;6.408;2022-10-16T10:09:24;0.90;;;0.50;;
33930;SDS011;20215;53.130;6.408;2022-10-16T10:11:56;3.72;;;1.27;;
33930;SDS011;20215;53.130;6.408;2022-10-16T10:31:09;3.03;;;1.05;;
33930;SDS011;20215;53.130;6.408;2022-10-16T10:33:52;2.25;;;0.50;;
33930;SDS011;20215;53.130;6.408;2022-10-16T10:36:39;1.70;;;0.63;;
33930;SDS011;20215;53.130;6.408;2022-10-16T10:39:14;1.63;;;0.60;;
33930;SDS011;20215;53.130;6.408;2022-10-16T10:48:12;4.80;;;0.80;;
33930;SDS011;20215;53.130;6.408;2022-10-16T10:51:01;2.08;;;0.60;;
33930;SDS011;20215;53.130;6.408;2022-10-16T10:56:14;2.72;;;0.77;;
33930;SDS011;20215;53.130;6.408;2022-10-16T10:59:06;2.80;;;0.68;;
33930;SDS011;20215;53.130;6.408;2022-10-16T11:01:56;1.85;;;1.20;;
33930;SDS011;20215;53.130;6.408;2022-10-16T11:07:08;1.95;;;0.68;;
33930;SDS011;20215;53.130;6.408;2022-10-16T11:09:41;2.05;;;0.50;;
33930;SDS011;20215;53.130;6.408;2022-10-16T11:12:14;3.15;;;0.75;;
33930;SDS011;20215;53.130;6.408;2022-10-16T11:17:19;3.40;;;0.98;;
33930;SDS011;20215;53.130;6.408;2022-10-16T11:19:54;3.10;;;1.13;;
33930;SDS011;20215;53.130;6.408;2022-10-16T11:22:36;3.53;;;0.82;;
33930;SDS011;20215;53.130;6.408;2022-10-16T11:27:57;2.72;;;0.60;;
33930;SDS011;20215;53.130;6.408;2022-10-16T11:33:35;3.15;;;1.08;;
33930;SDS011;20215;53.130;6.408;2022-10-16T11:36:08;2.40;;;0.82;;
33930;SDS011;20215;53.130;6.408;2022-10-16T11:38:46;3.33;;;0.70;;
33930;SDS011;20215;53.130;6.408;2022-10-16T11:44:20;3.38;;;1.00;;
33930;SDS011;20215;53.130;6.408;2022-10-16T11:49:32;3.72;;;0.85;;
33930;SDS011;20215;53.130;6.408;2022-10-16T11:52:17;2.63;;;0.83;;
33930;SDS011;20215;53.130;6.408;2022-10-16T11:55:01;4.35;;;1.40;;
33930;SDS011;20215;53.130;6.408;2022-10-16T11:57:36;3.35;;;0.73;;
33930;SDS011;20215;53.130;6.408;2022-10-16T12:00:14;2.85;;;0.85;;
33930;SDS011;20215;53.130;6.408;2022-10-16T12:08:20;5.15;;;0.68;;
33930;SDS011;20215;53.130;6.408;2022-10-16T12:10:46;2.40;;;0.50;;
33930;SDS011;20215;53.130;6.408;2022-10-16T12:13:31;3.58;;;1.00;;
33930;SDS011;20215;53.130;6.408;2022-10-16T12:18:38;2.35;;;0.88;;
33930;SDS011;20215;53.130;6.408;2022-10-16T12:21:05;2.42;;;0.57;;
33930;SDS011;20215;53.130;6.408;2022-10-16T12:23:32;2.33;;;0.85;;
33930;SDS011;20215;53.130;6.408;2022-10-16T12:26:02;3.38;;;1.48;;
33930;SDS011;20215;53.130;6.408;2022-10-16T12:28:29;1.98;;;0.80;;
33930;SDS011;20215;53.130;6.408;2022-10-16T12:31:00;2.55;;;0.88;;
33930;SDS011;20215;53.130;6.408;2022-10-16T12:35:58;2.13;;;0.38;;
33930;SDS011;20215;53.130;6.408;2022-10-16T12:38:27;2.80;;;0.90;;
33930;SDS011;20215;53.130;6.408;2022-10-16T12:41:01;3.30;;;0.93;;
33930;SDS011;20215;53.130;6.408;2022-10-16T12:43:36;2.78;;;0.60;;
33930;SDS011;20215;53.130;6.408;2022-10-16T12:48:36;2.58;;;0.77;;
33930;SDS011;20215;53.130;6.408;2022-10-16T12:51:21;2.72;;;0.90;;
33930;SDS011;20215;53.130;6.408;2022-10-16T12:59:32;3.30;;;0.63;;
33930;SDS011;20215;53.130;6.408;2022-10-16T13:23:57;4.88;;;0.80;;
33930;SDS011;20215;53.130;6.408;2022-10-16T13:26:52;6.65;;;1.52;;
33930;SDS011;20215;53.130;6.408;2022-10-16T13:29:32;5.47;;;1.13;;
33930;SDS011;20215;53.130;6.408;2022-10-16T13:31:59;5.00;;;0.80;;
33930;SDS011;20215;53.130;6.408;2022-10-16T13:34:26;1.73;;;0.40;;
33930;SDS011;20215;53.130;6.408;2022-10-16T13:36:52;2.30;;;0.73;;
33930;SDS011;20215;53.130;6.408;2022-10-16T13:39:22;2.80;;;0.65;;
33930;SDS011;20215;53.130;6.408;2022-10-16T13:44:23;7.43;;;1.98;;
33930;SDS011;20215;53.130;6.408;2022-10-16T13:46:59;4.68;;;1.10;;
33930;SDS011;20215;53.130;6.408;2022-10-16T13:49:25;2.70;;;0.82;;
33930;SDS011;20215;53.130;6.408;2022-10-16T13:51:57;4.55;;;0.90;;
33930;SDS011;20215;53.130;6.408;2022-10-16T13:54:24;1.88;;;0.60;;
33930;SDS011;20215;53.130;6.408;2022-10-16T13:56:51;8.65;;;1.23;;
33930;SDS011;20215;53.130;6.408;2022-10-16T14:01:57;5.13;;;0.77;;
33930;SDS011;20215;53.130;6.408;2022-10-16T14:04:31;4.53;;;1.10;;
33930;SDS011;20215;53.130;6.408;2022-10-16T14:06:58;2.80;;;1.08;;
33930;SDS011;20215;53.130;6.408;2022-10-16T14:09:24;4.47;;;0.70;;
33930;SDS011;20215;53.130;6.408;2022-10-16T14:12:02;3.80;;;1.08;;
33930;SDS011;20215;53.130;6.408;2022-10-16T14:14:54;7.28;;;1.83;;
33930;SDS011;20215;53.130;6.408;2022-10-16T14:19:52;3.30;;;0.60;;
33930;SDS011;20215;53.130;6.408;2022-10-16T14:25:13;3.33;;;0.93;;
33930;SDS011;20215;53.130;6.408;2022-10-16T14:30:25;3.13;;;1.67;;
33930;SDS011;20215;53.130;6.408;2022-10-16T14:32:52;1.05;;;0.40;;
33930;SDS011;20215;53.130;6.408;2022-10-16T14:37:57;3.70;;;0.60;;
33930;SDS011;20215;53.130;6.408;2022-10-16T14:40:31;3.45;;;0.93;;
33930;SDS011;20215;53.130;6.408;2022-10-16T14:42:59;4.88;;;0.90;;
33930;SDS011;20215;53.130;6.408;2022-10-16T14:45:28;3.83;;;0.63;;
33930;SDS011;20215;53.130;6.408;2022-10-16T14:47:57;2.63;;;0.98;;
33930;SDS011;20215;53.130;6.408;2022-10-16T14:50:25;5.30;;;1.30;;
33930;SDS011;20215;53.130;6.408;2022-10-16T14:52:51;3.25;;;0.55;;
33930;SDS011;20215;53.130;6.408;2022-10-16T14:55:16;2.15;;;0.57;;
33930;SDS011;20215;53.130;6.408;2022-10-16T14:57:42;1.88;;;0.57;;
33930;SDS011;20215;53.130;6.408;2022-10-16T15:00:15;2.03;;;1.02;;
33930;SDS011;20215;53.130;6.408;2022-10-16T15:02:46;2.15;;;0.70;;
33930;SDS011;20215;53.130;6.408;2022-10-16T15:05:17;5.50;;;1.40;;
33930;SDS011;20215;53.130;6.408;2022-10-16T15:07:51;1.90;;;0.73;;
33930;SDS011;20215;53.130;6.408;2022-10-16T15:10:18;3.55;;;0.63;;
33930;SDS011;20215;53.130;6.408;2022-10-16T15:12:46;1.13;;;0.70;;
33930;SDS011;20215;53.130;6.408;2022-10-16T15:18:03;2.42;;;0.70;;
33930;SDS011;20215;53.130;6.408;2022-10-16T15:20:33;3.10;;;0.60;;
33930;SDS011;20215;53.130;6.408;2022-10-16T15:23:01;8.45;;;1.42;;
33930;SDS011;20215;53.130;6.408;2022-10-16T15:25:32;5.22;;;1.48;;
33930;SDS011;20215;53.130;6.408;2022-10-16T15:27:58;2.78;;;0.85;;
33930;SDS011;20215;53.130;6.408;2022-10-16T15:30:25;3.55;;;0.75;;
33930;SDS011;20215;53.130;6.408;2022-10-16T15:32:51;3.88;;;0.88;;
33930;SDS011;20215;53.130;6.408;2022-10-16T15:35:17;1.60;;;0.45;;
33930;SDS011;20215;53.130;6.408;2022-10-16T15:37:42;4.38;;;1.13;;
33930;SDS011;20215;53.130;6.408;2022-10-16T15:40:09;8.27;;;1.00;;
33930;SDS011;20215;53.130;6.408;2022-10-16T15:42:35;3.35;;;1.25;;
33930;SDS011;20215;53.130;6.408;2022-10-16T15:45:01;6.20;;;1.00;;
33930;SDS011;20215;53.130;6.408;2022-10-16T15:47:28;3.15;;;0.90;;
33930;SDS011;20215;53.130;6.408;2022-10-16T15:49:53;6.28;;;1.25;;
33930;SDS011;20215;53.130;6.408;2022-10-16T15:52:19;3.40;;;0.88;;
33930;SDS011;20215;53.130;6.408;2022-10-16T15:54:44;3.97;;;0.63;;
33930;SDS011;20215;53.130;6.408;2022-10-16T15:57:10;4.88;;;0.75;;
33930;SDS011;20215;53.130;6.408;2022-10-16T15:59:36;5.38;;;1.23;;
33930;SDS011;20215;53.130;6.408;2022-10-16T16:02:01;3.17;;;0.82;;
33930;SDS011;20215;53.130;6.408;2022-10-16T16:04:29;1.05;;;0.40;;
33930;SDS011;20215;53.130;6.408;2022-10-16T16:06:55;4.32;;;0.60;;
33930;SDS011;20215;53.130;6.408;2022-10-16T16:09:20;3.88;;;1.08;;
33930;SDS011;20215;53.130;6.408;2022-10-16T16:11:46;1.85;;;0.52;;
33930;SDS011;20215;53.130;6.408;2022-10-16T16:14:12;2.78;;;1.02;;
33930;SDS011;20215;53.130;6.408;2022-10-16T16:16:38;1.55;;;0.70;;
33930;SDS011;20215;53.130;6.408;2022-10-16T16:19:04;8.98;;;1.35;;
33930;SDS011;20215;53.130;6.408;2022-10-16T16:21:32;2.03;;;0.50;;
33930;SDS011;20215;53.130;6.408;2022-10-16T16:23:58;3.10;;;0.60;;
33930;SDS011;20215;53.130;6.408;2022-10-16T16:26:25;4.03;;;0.90;;
33930;SDS011;20215;53.130;6.408;2022-10-16T16:28:54;1.05;;;0.40;;
33930;SDS011;20215;53.130;6.408;2022-10-16T16:31:25;3.40;;;0.65;;
33930;SDS011;20215;53.130;6.408;2022-10-16T16:33:51;1.45;;;0.52;;
33930;SDS011;20215;53.130;6.408;2022-10-16T16:36:18;2.13;;;0.60;;
33930;SDS011;20215;53.130;6.408;2022-10-16T16:38:44;5.30;;;1.70;;
33930;SDS011;20215;53.130;6.408;2022-10-16T16:41:11;4.72;;;1.20;;
33930;SDS011;20215;53.130;6.408;2022-10-16T16:43:40;2.30;;;1.00;;
33930;SDS011;20215;53.130;6.408;2022-10-16T16:46:06;4.47;;;1.38;;
33930;SDS011;20215;53.130;6.408;2022-10-16T16:48:31;4.68;;;1.60;;
33930;SDS011;20215;53.130;6.408;2022-10-16T16:51:04;2.72;;;1.10;;
33930;SDS011;20215;53.130;6.408;2022-10-16T16:53:36;4.32;;;1.27;;
33930;SDS011;20215;53.130;6.408;2022-10-16T16:56:02;4.45;;;1.08;;
33930;SDS011;20215;53.130;6.408;2022-10-16T16:58:31;4.22;;;1.02;;
33930;SDS011;20215;53.130;6.408;2022-10-16T17:00:58;5.88;;;1.85;;
33930;SDS011;20215;53.130;6.408;2022-10-16T17:03:28;3.63;;;1.42;;
33930;SDS011;20215;53.130;6.408;2022-10-16T17:06:05;6.53;;;1.83;;
33930;SDS011;20215;53.130;6.408;2022-10-16T17:08:32;3.80;;;1.35;;
33930;SDS011;20215;53.130;6.408;2022-10-16T17:10:59;5.13;;;2.22;;
33930;SDS011;20215;53.130;6.408;2022-10-16T17:13:25;8.20;;;2.50;;
33930;SDS011;20215;53.130;6.408;2022-10-16T17:15:55;7.63;;;2.70;;
33930;SDS011;20215;53.130;6.408;2022-10-16T17:18:21;11.07;;;3.67;;